aviador You're here:

KMEI Decoded Metar

MERIDIAN/KEY FLD in MS, USA
Report Time2017-07-26 05:58:00
UTC Time2017-07-26 06:26:59
Flight Rules vfr VFR
WindCalm
Visibility9999 m
Phenomena:N/A
Clouds:N/A
CeilingNone
Temp24°C (ISA +10)
Dew Point24°C (100% RH)
QNH1020 hPa
Density Alt1,562 ft
Elevation292 ft
Report Wrong Elevation
Raw Report
KMEI 260558Z AUTO 00000KT 8SM CLR 24/24 A3012 RMK AO2 SLP194
T02440239 10283 20244 403000239 50008=

Extra information for KMEI:More info

Metar Taf Metar & Taf Last 4 Metars F.Rules Stats Wind Profile Meteogram Temp Stats Airport Information Weather charts Add Link Nearby VenuesMetar ALERT Operation Metar Decoded Social comments

AIRNAV info for KMEI